Airfield :
LOGIN :

Register | Disclaimer

   EN    FR    IT 

 










Legend :    VFR   Marginal VFR   IFR   Intensive IFR   Very Intensive IFR
Visi :
Ceiling :
>= 8 km
>= 3000ft
5 to 8 km
1000 to 3000 ft
1500m to 5 km
500 to 1000 ft
800 to 1500m
200 to 500 ft
< 800m
< 200 ft
Symbols :   Thunderstorms  Fog  Heavy snow  Heavy precipitations  Wind > 20 kt
SIGMETs :     Misc.  Thunderstorms  Icing  Turbulence  Mountain Waves  Volcanic Ashes







- Airport Elevation : 25 ft
- IATA code : QCY


EGXC - RAF Coningsby

CURRENT METAR :
  • 240650Z 18006KT 9999 FEW010 SCT050 BKN090 13/12 Q1013 BLU TEMPO SCT010 GRN

EXPIRED METARs :
  • 240550Z 21009KT 9999 FEW010 BKN120 13/12 Q1014 BLU TEMPO SCT010 GRN
  • 240450Z 18006KT 9999 FEW009 BKN230 12/11 Q1014 BLU

TAF AMD TAF EGXC
Valid from the 24 at 06:00 until the 25 at 00:00 UTC


240523Z 2406/2424 19005KT 9999 FEW010
BECMG 2406/2409 BKN010
TEMPO 2407/2423 7000 RA
PROB30
TEMPO 2409/2411 3000 RADZ BKN005
PROB40
TEMPO 2411/2416 23015G25KT FEW010
PROB30
TEMPO 2420/2423 3000 RADZ BKN005
No reported NOTAMs for that airfield.



MET'MAP, your aeronautical weather chart ! - Copyright ORBIFLY December 2007 - Disclaimer

ORBIFLY MET'MAP TEAM :

Programming & Development : Alexandra Zaïnal
Concept & Development : Baudouin d'Aumeries
Co-Development & Prog : Marc-Olivier Méhu
Technical & hardware support : Manuel Goepfert

Contact : metmap@orbifly.com




SOURCES & CREDITS :

   NOAA